Time;durP1;ratioP1;P1;durP2;ratioP2;P2;SDS_P1;SDS_P2;PMS_P1;PMS_P2;Temp;Humidity;BMP_temperature;BMP_pressure;BME280_temperature;BME280_humidity;BME280_pressure;Samples;Min_cycle;Max_cycle;Signal;HPM_P1;HPM_P2
2022/05/27 00:01:49;;;;;;;6.00;1.80;;;9.40;99.90;8.60;99825;;;;577762;247;24082;-78
2022/05/27 00:04:14;;;;;;;2.90;0.90;;;9.40;99.90;8.60;99825;;;;576748;247;24121;-75
2022/05/27 00:06:46;;;;;;;2.47;1.13;;;9.40;99.90;8.70;99824;;;;577636;247;24135;-78
2022/05/27 00:09:11;;;;;;;3.37;1.30;;;9.40;99.90;8.70;99817;;;;577340;247;24118;-74
2022/05/27 00:11:40;;;;;;;2.93;1.30;;;9.40;99.90;8.80;99817;;;;577431;247;24113;-75
2022/05/27 00:14:08;;;;;;;3.47;1.13;;;9.50;99.90;8.90;99822;;;;572302;247;24071;-75
2022/05/27 00:16:37;;;;;;;7.43;1.20;;;9.70;99.90;9.00;99819;;;;571769;247;24058;-75
2022/05/27 00:19:05;;;;;;;1.70;0.67;;;9.70;99.90;9.10;99806;;;;576480;247;24115;-74
2022/05/27 00:21:36;;;;;;;2.33;1.03;;;10.00;99.90;9.30;99807;;;;580090;247;24083;-75
2022/05/27 00:24:01;;;;;;;1.93;1.00;;;10.00;99.90;9.40;99800;;;;571457;247;24104;-78
2022/05/27 00:26:32;;;;;;;4.07;1.00;;;10.10;99.90;9.40;99799;;;;571740;247;24076;-79
2022/05/27 00:28:57;;;;;;;2.80;1.27;;;10.20;99.90;9.50;99790;;;;581571;247;24066;-77
2022/05/27 00:31:25;;;;;;;3.37;1.40;;;10.30;99.90;9.60;99794;;;;571405;247;24130;-74
2022/05/27 00:33:53;;;;;;;7.70;1.23;;;10.30;99.90;9.70;99797;;;;571646;247;24060;-74
2022/05/27 00:36:21;;;;;;;2.83;1.10;;;10.50;99.90;9.70;99799;;;;571589;247;24099;-78
2022/05/27 00:38:49;;;;;;;6.83;1.40;;;10.50;99.90;9.80;99799;;;;571975;247;24067;-79
2022/05/27 00:41:20;;;;;;;4.10;1.00;;;10.60;99.90;9.90;99794;;;;576896;247;24066;-81
2022/05/27 00:43:48;;;;;;;4.23;1.23;;;10.60;99.90;9.90;99793;;;;576588;247;24112;-81
2022/05/27 00:46:15;;;;;;;5.07;1.20;;;10.70;99.90;10.00;99790;;;;580295;247;24087;-79
2022/05/27 00:48:46;;;;;;;2.67;0.80;;;10.70;99.90;10.00;99792;;;;571582;247;24076;-76
2022/05/27 00:51:14;;;;;;;1.37;1.00;;;10.80;99.90;10.10;99786;;;;573056;246;24075;-80
2022/05/27 00:53:44;;;;;;;2.63;1.13;;;10.80;99.90;10.20;99788;;;;573562;246;24065;-80
2022/05/27 00:56:13;;;;;;;0.40;0.40;;;10.90;99.90;10.20;99782;;;;573167;247;24071;-80
2022/05/27 00:58:40;;;;;;;4.27;1.10;;;11.00;99.90;10.30;99784;;;;573043;247;24051;-77
2022/05/27 01:01:08;;;;;;;6.13;1.13;;;11.00;99.90;10.30;99781;;;;572612;247;24127;-75
2022/05/27 01:03:36;;;;;;;3.60;1.03;;;11.00;99.90;10.40;99785;;;;572381;247;24035;-76
2022/05/27 01:06:05;;;;;;;2.83;0.60;;;11.10;99.90;10.40;99782;;;;572263;247;25167;-76
2022/05/27 01:08:33;;;;;;;5.73;1.00;;;11.10;99.90;10.40;99771;;;;572159;247;24078;-76
2022/05/27 01:11:19;;;;;;;1.10;0.70;;;11.10;99.90;10.40;99778;;;;572433;247;24058;-80
2022/05/27 01:14:20;;;;;;;2.07;0.93;;;11.20;99.90;10.50;99776;;;;572161;247;24070;-76
2022/05/27 01:16:59;;;;;;;2.87;0.83;;;11.20;99.90;10.50;99775;;;;573425;247;24133;-79
2022/05/27 01:23:04;;;;;;;3.13;0.70;;;11.20;99.90;10.50;99759;;;;572582;247;24143;-74
2022/05/27 01:26:21;;;;;;;3.23;1.17;;;11.20;99.90;10.60;99750;;;;572375;247;24108;-78
2022/05/27 01:29:47;;;;;;;2.03;0.77;;;11.30;99.90;10.60;99761;;;;572097;247;24058;-78
2022/05/27 01:32:12;;;;;;;7.37;1.17;;;11.30;99.90;10.60;99757;;;;560106;253;24193;-75
2022/05/27 01:35:07;;;;;;;3.17;1.07;;;11.30;99.90;10.60;99745;;;;559615;253;24140;-76
2022/05/27 01:37:49;;;;;;;1.33;0.67;;;11.30;99.90;10.60;99750;;;;576978;247;24059;-75
2022/05/27 01:40:41;;;;;;;1.57;0.70;;;11.30;99.90;10.60;99744;;;;571467;247;24079;-75
2022/05/27 01:43:17;;;;;;;1.60;0.83;;;11.30;99.90;10.60;99742;;;;571526;247;24063;-75
2022/05/27 01:45:51;;;;;;;6.93;0.97;;;11.30;99.90;10.60;99745;;;;571245;247;24103;-75
2022/05/27 01:48:29;;;;;;;4.93;1.03;;;11.30;99.90;10.60;99735;;;;568156;247;24097;-75
2022/05/27 01:51:14;;;;;;;3.37;1.13;;;11.30;99.90;10.60;99729;;;;571260;247;24129;-77
2022/05/27 01:54:04;;;;;;;1.03;0.83;;;11.30;99.90;10.60;99729;;;;576709;247;24078;-74
2022/05/27 01:56:40;;;;;;;3.60;1.13;;;11.30;99.90;10.60;99727;;;;569447;247;24081;-76
2022/05/27 01:59:14;;;;;;;3.90;1.17;;;11.30;99.90;10.60;99724;;;;571622;247;24073;-76
2022/05/27 02:01:43;;;;;;;4.80;1.37;;;11.20;99.90;10.50;99717;;;;571927;246;24065;-76
2022/05/27 02:04:36;;;;;;;6.83;1.50;;;11.30;99.90;10.50;99718;;;;572714;246;24132;-77
2022/05/27 02:07:03;;;;;;;3.17;1.23;;;11.20;99.90;10.50;99711;;;;580729;247;24110;-76
2022/05/27 02:09:36;;;;;;;1.47;0.90;;;11.20;99.90;10.60;99709;;;;572267;247;24053;-74
2022/05/27 02:12:07;;;;;;;3.37;1.03;;;11.30;99.90;10.60;99711;;;;570955;247;24070;-75
2022/05/27 02:15:03;;;;;;;5.20;0.73;;;11.20;99.90;10.60;99710;;;;571378;247;24103;-75
2022/05/27 02:17:31;;;;;;;2.33;0.87;;;11.20;99.90;10.50;99702;;;;571809;247;24060;-75
2022/05/27 02:20:14;;;;;;;2.13;0.93;;;11.20;99.90;10.50;99691;;;;571946;247;24083;-76
2022/05/27 02:22:47;;;;;;;0.70;0.70;;;11.20;99.90;10.50;99694;;;;571467;247;24069;-75
2022/05/27 02:25:18;;;;;;;4.50;1.03;;;11.20;99.90;10.50;99682;;;;571828;247;24060;-75
2022/05/27 02:27:55;;;;;;;4.03;1.03;;;11.20;99.90;10.40;99683;;;;571918;247;24077;-80
2022/05/27 02:30:29;;;;;;;4.00;0.87;;;11.20;99.90;10.40;99681;;;;572353;247;24118;-78
2022/05/27 02:35:07;;;;;;;4.60;1.07;;;11.10;99.90;10.40;99672;;;;572454;247;24066;-80
2022/05/27 02:35:25;;;;;;;3.70;1.13;;;11.10;99.90;10.30;99662;;;;571085;247;24156;-81
2022/05/27 02:37:53;;;;;;;1.50;0.60;;;11.00;99.90;10.30;99660;;;;572348;247;24058;-81
2022/05/27 02:40:24;;;;;;;8.33;1.43;;;11.00;99.90;10.30;99657;;;;581169;247;24218;-79
2022/05/27 02:43:03;;;;;;;2.50;1.03;;;11.00;99.90;10.30;99662;;;;579484;247;24067;-80
2022/05/27 02:45:43;;;;;;;3.10;0.87;;;11.00;99.90;10.30;99648;;;;571744;247;24072;-82
2022/05/27 02:48:34;;;;;;;1.07;0.50;;;10.90;99.90;10.30;99657;;;;571909;247;24043;-82
2022/05/27 02:51:24;;;;;;;4.00;1.00;;;10.90;99.90;10.30;99641;;;;576938;247;24121;-82
2022/05/27 02:54:25;;;;;;;3.87;0.70;;;10.90;99.90;10.20;99648;;;;570410;247;24073;-81
2022/05/27 02:57:02;;;;;;;4.53;1.23;;;10.90;99.90;10.20;99643;;;;568395;247;24077;-78
2022/05/27 02:59:30;;;;;;;2.30;0.87;;;10.90;99.90;10.20;99641;;;;572185;247;24070;-82
2022/05/27 03:02:09;;;;;;;0.97;0.80;;;10.90;99.90;10.20;99647;;;;581627;247;24130;-82
2022/05/27 03:04:37;;;;;;;2.70;0.87;;;10.90;99.90;10.10;99640;;;;572383;247;24086;-81
2022/05/27 03:07:13;;;;;;;3.07;0.80;;;10.80;99.90;10.10;99642;;;;572550;247;24068;-82
2022/05/27 03:10:12;;;;;;;4.23;0.80;;;10.80;99.90;10.00;99646;;;;571810;247;24065;-80
2022/05/27 03:12:52;;;;;;;1.73;0.60;;;10.70;99.90;9.90;99653;;;;570295;247;24074;-81
2022/05/27 03:15:26;;;;;;;4.10;0.70;;;10.60;99.90;9.90;99645;;;;573893;245;24049;-81
2022/05/27 03:18:11;;;;;;;1.33;0.80;;;10.60;99.90;9.90;99643;;;;572314;247;24098;-80
2022/05/27 03:20:50;;;;;;;3.47;0.70;;;10.60;99.90;10.00;99649;;;;572441;247;24055;-79
2022/05/27 03:23:49;;;;;;;3.60;0.63;;;10.70;99.90;10.10;99647;;;;572838;247;24149;-80
2022/05/27 03:26:50;;;;;;;1.23;0.87;;;10.80;99.90;10.10;99636;;;;573184;246;24083;-81
2022/05/27 03:29:54;;;;;;;0.40;0.40;;;10.80;99.90;10.20;99644;;;;573184;247;24039;-81
2022/05/27 03:32:31;;;;;;;1.60;0.77;;;10.90;99.90;10.20;99646;;;;573306;247;24087;-80
2022/05/27 03:35:13;;;;;;;2.20;0.70;;;10.90;99.90;10.30;99646;;;;572171;247;24090;-81
2022/05/27 03:37:44;;;;;;;6.73;0.80;;;11.00;99.90;10.30;99642;;;;571815;247;24072;-82
2022/05/27 03:40:27;;;;;;;1.90;0.60;;;11.00;99.90;10.40;99642;;;;571386;247;24068;-82
2022/05/27 03:42:55;;;;;;;0.90;0.60;;;11.10;99.90;10.40;99643;;;;569834;247;24069;-83
2022/05/27 03:45:27;;;;;;;2.50;0.50;;;11.10;99.90;10.40;99634;;;;571674;247;24064;-83
2022/05/27 03:47:51;;;;;;;1.53;0.70;;;11.10;99.90;10.50;99622;;;;577037;247;24125;-83
2022/05/27 03:50:28;;;;;;;1.03;0.70;;;11.10;99.90;10.50;99623;;;;571724;247;24062;-76
2022/05/27 03:52:53;;;;;;;1.07;0.67;;;11.20;99.90;10.50;99611;;;;571394;247;24066;-75
2022/05/27 03:55:21;;;;;;;0.60;0.60;;;11.20;99.90;10.60;99619;;;;571589;247;24061;-76
2022/05/27 03:57:49;;;;;;;3.00;0.77;;;11.30;99.90;10.60;99611;;;;571560;247;24142;-75
2022/05/27 04:00:17;;;;;;;1.10;1.07;;;11.40;99.90;10.70;99610;;;;571559;247;24066;-76
2022/05/27 04:02:45;;;;;;;1.43;0.70;;;11.40;99.90;10.70;99605;;;;571800;247;24053;-78
2022/05/27 04:05:16;;;;;;;1.23;0.93;;;11.40;99.90;10.80;99598;;;;571724;247;24056;-75
2022/05/27 04:07:45;;;;;;;0.60;0.60;;;11.60;99.90;10.90;99593;;;;571595;247;24125;-76
2022/05/27 04:10:13;;;;;;;2.17;0.63;;;11.60;99.90;10.90;99597;;;;581511;247;24061;-75
2022/05/27 04:12:38;;;;;;;0.80;0.70;;;11.60;99.90;11.00;99590;;;;571580;247;25106;-79
2022/05/27 04:15:06;;;;;;;0.63;0.63;;;11.70;99.90;11.10;99590;;;;571676;247;24036;-77
2022/05/27 04:17:34;;;;;;;1.00;0.63;;;11.80;99.90;11.20;99578;;;;571233;247;24048;-78
2022/05/27 04:20:02;;;;;;;3.03;0.80;;;11.90;99.90;11.20;99580;;;;571751;247;24059;-80
2022/05/27 04:22:30;;;;;;;0.60;0.60;;;11.90;99.90;11.30;99582;;;;571028;247;24071;-78
2022/05/27 04:25:01;;;;;;;0.67;0.63;;;12.00;99.90;11.30;99585;;;;572269;246;24066;-76
2022/05/27 04:27:25;;;;;;;2.40;0.50;;;12.00;99.90;11.40;99578;;;;572488;246;24131;-75
2022/05/27 04:29:56;;;;;;;2.03;0.60;;;12.10;99.90;11.40;99580;;;;572629;247;24053;-80
2022/05/27 04:32:21;;;;;;;1.47;0.50;;;12.10;99.90;11.40;99572;;;;577008;247;24081;-77
2022/05/27 04:34:53;;;;;;;0.67;0.67;;;12.10;99.90;11.40;99567;;;;572348;245;24083;-76
2022/05/27 04:37:17;;;;;;;1.77;0.57;;;12.10;99.90;11.50;99562;;;;569866;247;24060;-75
2022/05/27 04:39:45;;;;;;;4.73;0.70;;;12.20;99.90;11.50;99560;;;;572122;247;24055;-75
2022/05/27 04:42:16;;;;;;;0.80;0.70;;;12.30;99.90;11.60;99553;;;;572020;247;24062;-74
2022/05/27 04:44:41;;;;;;;1.80;1.00;;;12.30;99.90;11.60;99540;;;;576423;247;24052;-76
2022/05/27 04:47:12;;;;;;;0.93;0.60;;;12.30;99.90;11.60;99525;;;;571914;247;24067;-75
2022/05/27 04:49:53;;;;;;;1.27;0.90;;;12.30;99.90;11.70;99534;;;;580334;247;24058;-75
2022/05/27 04:52:29;;;;;;;1.63;1.10;;;12.40;99.90;12.00;99540;;;;571950;247;24125;-75
2022/05/27 04:54:56;;;;;;;3.27;1.17;;;12.60;99.90;12.20;99539;;;;571779;247;24058;-78
2022/05/27 04:57:33;;;;;;;1.70;0.70;;;12.80;99.90;12.30;99538;;;;571845;247;24054;-75
2022/05/27 05:00:01;;;;;;;3.83;0.80;;;13.10;99.90;12.50;99545;;;;571854;247;24058;-76
2022/05/27 05:02:30;;;;;;;2.40;0.90;;;13.20;99.90;12.50;99533;;;;571128;247;24079;-75
2022/05/27 05:04:58;;;;;;;4.57;0.70;;;13.20;99.90;12.40;99532;;;;571089;247;24048;-75
2022/05/27 05:07:26;;;;;;;1.60;1.27;;;13.20;99.90;12.40;99538;;;;571254;247;24071;-75
2022/05/27 05:09:55;;;;;;;3.07;1.17;;;13.10;99.90;12.40;99522;;;;576652;247;24045;-75
2022/05/27 05:12:22;;;;;;;0.70;0.70;;;13.10;99.90;12.50;99524;;;;571470;247;24050;-74
2022/05/27 05:14:50;;;;;;;1.93;1.03;;;13.20;99.90;12.50;99530;;;;571946;247;24043;-82
2022/05/27 05:17:18;;;;;;;1.47;0.90;;;13.20;99.90;12.50;99542;;;;572213;247;25152;-81
2022/05/27 05:19:47;;;;;;;1.57;0.53;;;13.20;99.90;12.50;99535;;;;572125;247;24109;-81
2022/05/27 05:22:14;;;;;;;1.73;1.00;;;13.20;99.90;12.50;99519;;;;572423;247;24136;-82
2022/05/27 05:24:44;;;;;;;2.00;0.90;;;13.10;99.90;12.50;99509;;;;572240;247;24043;-81
2022/05/27 05:27:14;;;;;;;2.10;0.90;;;13.10;99.90;12.50;99502;;;;571927;247;24087;-82
2022/05/27 05:29:39;;;;;;;1.73;0.87;;;13.10;99.90;12.60;99483;;;;571970;247;24060;-79
2022/05/27 05:32:07;;;;;;;1.57;1.47;;;13.20;99.90;12.70;99488;;;;576802;247;24073;-80
2022/05/27 05:34:34;;;;;;;3.03;1.07;;;13.40;99.90;12.90;99478;;;;572214;247;24126;-81
2022/05/27 05:37:02;;;;;;;2.00;0.93;;;13.60;99.90;13.20;99473;;;;572702;246;24068;-76
2022/05/27 05:39:31;;;;;;;1.70;1.00;;;14.20;99.90;13.70;99481;;;;572972;246;24088;-78
2022/05/27 05:41:59;;;;;;;4.33;1.00;;;14.20;99.90;14.00;99477;;;;572923;247;24044;-79
2022/05/27 05:44:27;;;;;;;1.33;1.23;;;14.60;99.90;14.30;99473;;;;572037;247;24076;-75
2022/05/27 05:46:55;;;;;;;1.20;1.03;;;14.90;99.90;14.50;99473;;;;572541;247;24041;-76
2022/05/27 05:49:23;;;;;;;2.13;1.00;;;15.20;99.90;14.50;99470;;;;572459;247;24139;-76
2022/05/27 05:51:52;;;;;;;1.97;1.20;;;15.30;99.90;14.60;99468;;;;576849;247;24067;-78
2022/05/27 05:54:20;;;;;;;1.77;0.70;;;15.30;99.90;14.70;99465;;;;572068;247;24142;-79
2022/05/27 05:56:51;;;;;;;1.93;1.10;;;15.40;99.90;14.80;99466;;;;577050;247;24128;-78
2022/05/27 05:59:22;;;;;;;1.90;0.87;;;15.40;99.90;14.90;99454;;;;571890;247;24042;-77
2022/05/27 06:01:47;;;;;;;3.43;0.90;;;15.70;99.90;15.10;99451;;;;571464;247;24074;-79
2022/05/27 06:04:15;;;;;;;3.13;0.80;;;15.70;99.90;15.20;99435;;;;571792;247;24037;-80
2022/05/27 06:06:43;;;;;;;1.40;0.80;;;15.80;99.90;15.80;99430;;;;572590;247;24088;-76
2022/05/27 06:09:11;;;;;;;1.67;0.80;;;16.40;99.90;16.20;99424;;;;572176;247;24097;-80
2022/05/27 06:11:39;;;;;;;2.33;0.80;;;16.70;99.90;17.30;99413;;;;577292;247;24080;-76
2022/05/27 06:14:07;;;;;;;3.27;1.50;;;17.70;99.90;18.10;99407;;;;571965;247;24062;-77
2022/05/27 06:16:35;;;;;;;2.37;0.60;;;18.50;99.90;19.40;99401;;;;577569;247;24061;-82
2022/05/27 06:19:03;;;;;;;1.40;0.70;;;19.70;99.90;22.50;99423;;;;571482;247;24056;-77
2022/05/27 06:21:31;;;;;;;0.90;0.60;;;22.50;99.90;24.60;99425;;;;571387;247;24090;-76
2022/05/27 06:24:00;;;;;;;3.50;0.67;;;24.80;98.80;24.30;99434;;;;571447;247;24045;-76
2022/05/27 06:26:26;;;;;;;0.63;0.50;;;25.10;92.40;23.40;99425;;;;571268;247;24067;-74
2022/05/27 06:34:29;;;;;;;1.27;0.60;;;22.20;92.20;20.00;99417;;;;580450;247;24048;-74
2022/05/27 06:37:00;;;;;;;0.70;0.70;;;21.10;94.10;20.60;99408;;;;571595;247;24072;-75
2022/05/27 06:39:31;;;;;;;1.40;0.70;;;21.10;95.70;21.70;99411;;;;571096;247;24048;-77
2022/05/27 06:41:56;;;;;;;0.87;0.60;;;22.00;94.70;22.90;99405;;;;571349;247;24126;-77
2022/05/27 06:44:23;;;;;;;0.77;0.70;;;23.10;93.30;24.60;99399;;;;571679;247;24043;-75
2022/05/27 06:46:52;;;;;;;2.00;0.80;;;24.70;91.20;26.90;99393;;;;571465;247;23110;-76
2022/05/27 06:49:19;;;;;;;0.77;0.53;;;26.90;84.30;27.80;99390;;;;572652;246;23077;-80
2022/05/27 06:51:51;;;;;;;0.77;0.47;;;28.20;72.40;28.60;99396;;;;577621;246;23067;-79
2022/05/27 06:54:20;;;;;;;0.60;0.60;;;30.20;62.00;29.80;99394;;;;571797;247;23091;-76
2022/05/27 06:56:44;;;;;;;0.70;0.70;;;30.10;61.90;29.10;99389;;;;569579;247;24095;-75
2022/05/27 06:59:12;;;;;;;3.97;0.53;;;30.00;59.90;28.30;99377;;;;577326;245;23130;-77
2022/05/27 07:01:40;;;;;;;1.80;0.70;;;29.40;59.60;29.60;99371;;;;586345;244;23139;-76
2022/05/27 07:04:07;;;;;;;0.55;0.55;;;29.90;60.10;31.30;99387;;;;572323;247;23075;-75
2022/05/27 07:06:37;;;;;;;1.15;0.40;;;31.50;57.20;32.10;99379;;;;572777;247;24098;-75
2022/05/27 07:09:10;;;;;;;0.52;0.50;;;33.30;52.60;33.00;99369;;;;567954;247;23150;-76
2022/05/27 07:11:37;;;;;;;1.85;0.65;;;33.30;52.50;33.60;99368;;;;560177;252;23130;-77
2022/05/27 07:14:03;;;;;;;2.00;0.50;;;34.00;50.50;33.40;99363;;;;572795;247;23125;-76
2022/05/27 07:16:31;;;;;;;0.68;0.50;;;34.80;48.50;34.50;99366;;;;581475;247;23087;-77
2022/05/27 07:19:01;;;;;;;2.25;0.50;;;35.40;47.20;35.20;99360;;;;572723;247;23076;-76
2022/05/27 07:21:29;;;;;;;1.12;0.50;;;35.40;47.20;35.60;99365;;;;573226;247;23135;-76
2022/05/27 07:23:57;;;;;;;0.62;0.30;;;36.00;47.00;34.20;99365;;;;575774;245;23079;-75
2022/05/27 07:26:28;;;;;;;3.60;0.70;;;35.30;46.10;31.30;99375;;;;583273;245;23087;-77
2022/05/27 07:28:53;;;;;;;2.55;0.62;;;33.10;50.10;28.70;99367;;;;581486;247;23123;-78
2022/05/27 07:31:21;;;;;;;1.02;0.60;;;30.60;54.60;26.30;99377;;;;561556;253;23147;-76
2022/05/27 07:33:49;;;;;;;1.50;0.60;;;28.20;60.50;24.50;99389;;;;573073;246;23090;-74
2022/05/27 07:36:22;;;;;;;0.87;0.60;;;24.30;72.00;22.90;99396;;;;573071;248;23079;-74
2022/05/27 07:38:51;;;;;;;0.93;0.60;;;24.20;71.70;21.60;99386;;;;568849;248;23086;-75
2022/05/27 07:41:16;;;;;;;0.47;0.47;;;22.80;82.30;21.30;99391;;;;573120;247;24087;-78
2022/05/27 07:43:47;;;;;;;0.40;0.40;;;22.00;92.70;23.50;99397;;;;572403;248;24063;-75
2022/05/27 07:46:15;;;;;;;0.77;0.50;;;23.30;93.80;25.80;99395;;;;561057;253;24122;-77
2022/05/27 07:48:42;;;;;;;0.60;0.60;;;25.60;83.50;28.00;99382;;;;573226;247;23084;-77
2022/05/27 07:51:07;;;;;;;1.03;0.57;;;27.90;69.00;29.90;99389;;;;572702;248;23081;-76
2022/05/27 07:53:38;;;;;;;1.45;1.00;;;29.90;64.40;30.50;99387;;;;572588;247;23089;-75
2022/05/27 07:56:06;;;;;;;1.48;1.10;;;30.90;58.80;30.90;99382;;;;581390;247;23100;-78
2022/05/27 07:58:31;;;;;;;2.83;0.95;;;31.50;57.60;30.10;99396;;;;572834;247;23081;-75
2022/05/27 08:01:03;;;;;;;2.28;0.85;;;31.40;57.20;27.70;99394;;;;573307;247;23077;-75
2022/05/27 08:03:28;;;;;;;2.08;1.10;;;29.50;59.10;25.90;99399;;;;581985;246;23089;-75
2022/05/27 08:05:56;;;;;;;3.45;1.23;;;27.80;62.00;24.50;99390;;;;568008;247;35075;-74
2022/05/27 08:08:24;;;;;;;1.67;0.80;;;26.30;60.90;23.60;99391;;;;581796;247;23093;-76
2022/05/27 08:10:52;;;;;;;1.40;0.80;;;25.10;62.70;24.60;99384;;;;562029;252;23177;-77
2022/05/27 08:13:20;;;;;;;0.93;0.90;;;25.10;63.60;26.80;99386;;;;573328;247;23075;-77
2022/05/27 08:15:54;;;;;;;1.33;1.00;;;26.80;63.50;28.50;99381;;;;572582;247;23088;-74
2022/05/27 08:18:17;;;;;;;2.53;1.00;;;28.60;57.80;29.20;99381;;;;573043;247;23107;-76
2022/05/27 08:20:48;;;;;;;4.68;1.20;;;29.50;56.70;30.90;99391;;;;572157;247;24074;-75
2022/05/27 08:23:15;;;;;;;2.33;1.20;;;31.10;54.90;32.40;99391;;;;581232;247;23108;-75
2022/05/27 08:25:45;;;;;;;2.00;1.30;;;32.70;53.20;33.40;99383;;;;572570;247;23086;-76
2022/05/27 08:28:11;;;;;;;2.08;1.00;;;33.90;48.80;32.90;99382;;;;577388;247;24100;-77
2022/05/27 08:30:40;;;;;;;2.85;1.05;;;32.60;49.40;30.50;99394;;;;572830;247;23064;-77
2022/05/27 08:33:12;;;;;;;1.87;1.27;;;32.60;49.40;28.80;99391;;;;561396;252;24153;-79
2022/05/27 08:38:23;;;;;;;1.62;0.90;;;30.10;50.90;27.20;99394;;;;572767;248;23062;-75
2022/05/27 08:40:59;;;;;;;1.90;1.23;;;28.70;52.00;27.60;99408;;;;570866;247;24114;-75
2022/05/27 08:44:05;;;;;;;3.00;1.00;;;28.60;52.00;26.70;99385;;;;571761;248;23113;-75
2022/05/27 08:47:12;;;;;;;3.45;1.12;;;28.00;51.80;27.60;99376;;;;572416;247;23078;-75
2022/05/27 08:49:40;;;;;;;2.42;1.23;;;29.90;50.60;29.50;99378;;;;572173;248;23086;-75
2022/05/27 08:52:26;;;;;;;2.60;1.02;;;30.00;50.00;30.90;99378;;;;560873;253;23117;-75
2022/05/27 08:54:57;;;;;;;2.20;1.10;;;31.30;48.40;31.30;99384;;;;573036;247;23087;-78
2022/05/27 09:00:17;;;;;;;5.03;1.20;;;32.60;46.10;31.90;99406;;;;573305;248;23076;-80
2022/05/27 09:02:48;;;;;;;3.25;1.25;;;33.10;45.20;31.90;99387;;;;572926;247;24119;-78
2022/05/27 09:05:24;;;;;;;4.60;1.65;;;33.20;44.10;30.80;99401;;;;571996;248;23073;-80
2022/05/27 09:07:58;;;;;;;2.67;1.27;;;32.50;44.50;29.90;99379;;;;561358;253;23123;-75
2022/05/27 09:10:43;;;;;;;2.42;1.33;;;31.50;46.00;30.60;99392;;;;574169;247;23075;-79
2022/05/27 09:13:22;;;;;;;5.18;1.50;;;31.70;45.60;31.40;99379;;;;539705;258;24188;-78
2022/05/27 09:16:04;;;;;;;4.55;1.48;;;32.40;44.40;31.70;99397;;;;569469;247;23093;-79
2022/05/27 09:18:38;;;;;;;3.45;1.40;;;32.90;43.70;30.40;99395;;;;574380;247;23081;-75
2022/05/27 09:21:14;;;;;;;4.95;1.55;;;32.20;43.40;29.90;99398;;;;573102;247;23163;-75
2022/05/27 09:24:16;;;;;;;5.18;1.52;;;31.50;45.30;30.90;99387;;;;573268;247;23081;-76
2022/05/27 09:26:54;;;;;;;4.32;1.40;;;31.90;45.60;32.70;99386;;;;573760;247;23111;-76
2022/05/27 09:29:33;;;;;;;2.35;1.40;;;33.50;43.50;32.60;99391;;;;573501;247;23099;-74
2022/05/27 09:32:06;;;;;;;3.42;1.40;;;33.90;41.60;32.00;99392;;;;569035;247;23080;-75
2022/05/27 09:34:34;;;;;;;2.42;1.05;;;33.40;42.60;31.20;99391;;;;570531;247;23116;-76
2022/05/27 09:37:02;;;;;;;4.65;1.50;;;32.70;41.70;31.60;99408;;;;562029;252;23123;-77
2022/05/27 09:39:30;;;;;;;2.72;1.15;;;32.80;40.80;32.10;99404;;;;573624;247;23076;-83
2022/05/27 09:42:40;;;;;;;3.58;1.10;;;33.20;40.60;32.90;99407;;;;573672;247;24177;-79
2022/05/27 09:45:12;;;;;;;4.82;1.00;;;34.00;39.80;32.30;99421;;;;573483;247;23089;-76
2022/05/27 09:47:38;;;;;;;3.90;1.20;;;33.80;36.90;32.20;99398;;;;572845;248;23084;-76
2022/05/27 09:50:06;;;;;;;1.83;1.08;;;33.80;36.70;32.50;99411;;;;571076;247;23080;-76
2022/05/27 09:52:35;;;;;;;5.15;1.48;;;34.50;38.40;33.20;99419;;;;571677;248;23073;-77
2022/05/27 09:55:02;;;;;;;3.35;1.30;;;34.40;37.70;33.60;99415;;;;572115;247;23106;-76
2022/05/27 09:57:34;;;;;;;4.55;1.30;;;35.00;37.40;33.30;99421;;;;571089;248;23074;-76
2022/05/27 10:00:02;;;;;;;3.12;1.50;;;35.00;37.60;31.60;99442;;;;572232;247;23096;-75
2022/05/27 10:02:34;;;;;;;3.83;1.70;;;34.00;38.60;28.50;99437;;;;571797;248;23069;-75
2022/05/27 10:05:17;;;;;;;4.35;1.08;;;31.40;40.30;26.70;99440;;;;559301;253;23170;-75
2022/05/27 10:07:45;;;;;;;2.12;1.30;;;29.00;43.60;27.10;99405;;;;572304;247;23076;-75
2022/05/27 10:10:30;;;;;;;2.72;1.25;;;28.40;44.50;27.20;99439;;;;572193;248;25170;-75
2022/05/27 10:12:57;;;;;;;3.20;1.20;;;28.40;43.80;26.80;99437;;;;572684;247;23116;-74
2022/05/27 10:15:40;;;;;;;4.55;1.45;;;28.10;43.50;26.70;99434;;;;559596;253;23231;-75
2022/05/27 10:18:23;;;;;;;6.00;1.70;;;27.90;44.20;26.60;99439;;;;572332;247;23122;-75
2022/05/27 10:20:57;;;;;;;3.10;1.40;;;27.90;44.00;26.60;99441;;;;573303;248;23074;-73
2022/05/27 10:23:35;;;;;;;4.97;1.27;;;27.80;44.40;26.40;99442;;;;573776;247;23130;-75
2022/05/27 10:26:34;;;;;;;4.57;1.20;;;27.70;44.50;25.40;99446;;;;574770;247;23093;-74
2022/05/27 10:29:14;;;;;;;3.70;1.43;;;26.80;45.80;24.40;99452;;;;574053;247;23093;-76
2022/05/27 10:31:54;;;;;;;3.80;1.40;;;25.80;47.50;23.90;99458;;;;562523;252;24120;-75
2022/05/27 10:34:42;;;;;;;5.20;1.35;;;25.10;49.70;23.90;99435;;;;567689;247;35079;-75
2022/05/27 10:37:30;;;;;;;6.20;1.40;;;25.00;49.90;23.60;99446;;;;572840;247;24107;-76
2022/05/27 10:40:11;;;;;;;6.00;1.40;;;24.60;48.90;23.00;99443;;;;571179;247;24178;-75
2022/05/27 10:42:58;;;;;;;3.63;0.87;;;23.80;49.30;22.40;99440;;;;557494;250;24229;-76
2022/05/27 10:45:31;;;;;;;4.27;0.90;;;22.40;52.60;21.70;99463;;;;568512;245;24088;-74
2022/05/27 10:48:14;;;;;;;3.40;0.97;;;22.30;52.60;20.70;99458;;;;576339;245;24153;-76
2022/05/27 10:51:00;;;;;;;2.73;0.97;;;21.50;53.00;19.80;99449;;;;569898;249;24136;-76
2022/05/27 10:53:33;;;;;;;4.77;1.10;;;20.50;55.60;19.30;99460;;;;569719;249;24181;-78
2022/05/27 10:56:25;;;;;;;1.80;0.90;;;19.90;57.80;18.50;99441;;;;561096;252;24097;-75
2022/05/27 11:02:27;;;;;;;3.77;0.80;;;18.60;59.80;17.30;99450;;;;561829;252;24060;-77
2022/05/27 11:05:12;;;;;;;2.10;0.47;;;18.00;61.90;17.00;99466;;;;569851;252;24073;-74
2022/05/27 11:08:01;;;;;;;1.60;0.73;;;17.60;63.30;16.70;99450;;;;561570;252;24151;-78
2022/05/27 11:11:00;;;;;;;8.87;0.87;;;17.30;64.70;16.50;99452;;;;557704;252;24078;-75
2022/05/27 11:17:11;;;;;;;11.67;1.00;;;16.90;66.00;16.50;99446;;;;561921;252;24116;-76
2022/05/27 11:19:45;;;;;;;3.23;0.90;;;17.00;65.60;16.50;99452;;;;571362;248;24132;-77
2022/05/27 11:23:03;;;;;;;1.40;0.70;;;17.00;67.30;16.40;99460;;;;579609;247;24122;-79
2022/05/27 11:25:56;;;;;;;1.57;1.47;;;17.00;66.60;16.40;99467;;;;569981;250;24099;-77
2022/05/27 11:28:49;;;;;;;4.80;0.93;;;17.00;66.70;16.40;99461;;;;556361;253;24105;-77
2022/05/27 11:31:32;;;;;;;3.60;0.80;;;16.90;66.30;16.30;99464;;;;562357;252;24182;-80
2022/05/27 11:34:19;;;;;;;5.07;0.70;;;16.70;64.90;16.00;99468;;;;538858;260;24169;-75
2022/05/27 11:37:09;;;;;;;5.63;1.07;;;16.70;64.90;15.80;99471;;;;562409;252;24148;-73
2022/05/27 11:39:50;;;;;;;2.60;0.70;;;16.50;66.90;16.00;99469;;;;561615;252;24088;-76
2022/05/27 11:42:38;;;;;;;3.13;1.00;;;16.60;68.70;16.30;99467;;;;561347;252;24129;-74
2022/05/27 11:45:29;;;;;;;3.30;0.90;;;16.80;68.80;16.40;99483;;;;558131;252;25218;-75
2022/05/27 11:48:18;;;;;;;4.67;0.50;;;17.00;67.20;16.10;99479;;;;561483;252;24088;-76
2022/05/27 11:51:16;;;;;;;5.40;1.30;;;16.80;66.10;15.80;99475;;;;561095;252;24154;-75
2022/05/27 11:54:08;;;;;;;2.17;1.50;;;16.60;65.90;15.80;99464;;;;560841;252;24112;-78
2022/05/27 11:56:48;;;;;;;5.17;0.40;;;16.40;67.60;15.80;99487;;;;558855;252;24101;-78
2022/05/27 11:59:31;;;;;;;7.40;0.87;;;16.40;66.70;15.60;99484;;;;560217;252;24101;-75
2022/05/27 12:02:38;;;;;;;3.00;0.50;;;16.20;66.90;15.50;99493;;;;560898;252;24132;-75
2022/05/27 12:05:22;;;;;;;2.57;0.77;;;16.20;67.90;15.60;99477;;;;569551;251;24126;-74
2022/05/27 12:08:04;;;;;;;3.67;0.87;;;16.20;67.10;15.70;99490;;;;560706;252;24102;-74
2022/05/27 12:10:41;;;;;;;6.47;0.60;;;16.30;64.80;15.80;99499;;;;556043;253;24089;-74
2022/05/27 12:13:14;;;;;;;3.40;1.27;;;16.40;65.10;16.00;99485;;;;555323;253;35147;-75